createdAt,value
2023-01-30T00:03:06.921Z,-0.55
2023-01-30T00:11:32.698Z,-0.58
2023-01-30T00:19:55.705Z,-0.59
2023-01-30T00:28:19.573Z,-0.49
2023-01-30T00:36:42.725Z,-0.46
2023-01-30T00:45:24.679Z,-0.39
2023-01-30T00:53:47.668Z,-0.34
2023-01-30T01:02:10.698Z,-0.30
2023-01-30T01:10:33.795Z,-0.27
2023-01-30T01:18:57.241Z,-0.26
2023-01-30T01:27:20.244Z,-0.23
2023-01-30T01:35:44.789Z,-0.19
2023-01-30T01:44:14.626Z,-0.18
2023-01-30T01:52:38.169Z,-0.16
2023-01-30T02:01:02.473Z,-0.15
2023-01-30T02:09:26.531Z,-0.15
2023-01-30T02:17:50.816Z,-0.14
2023-01-30T02:26:45.916Z,-0.23
2023-01-30T02:35:27.609Z,-0.24
2023-01-30T02:43:50.998Z,-0.26
2023-01-30T02:52:17.299Z,-0.27
2023-01-30T03:01:19.117Z,-0.30
2023-01-30T03:09:55.595Z,-0.32
2023-01-30T03:18:21.151Z,-0.28
2023-01-30T03:27:02.747Z,-0.35
2023-01-30T03:35:26.457Z,-0.30
2023-01-30T03:43:49.428Z,-0.34
2023-01-30T03:52:13.156Z,-0.37
2023-01-30T04:00:36.406Z,-0.32
2023-01-30T04:08:59.695Z,-0.32
2023-01-30T04:17:31.477Z,-0.32
2023-01-30T04:26:27.876Z,-0.39
2023-01-30T04:34:51.419Z,-0.37
2023-01-30T04:43:15.134Z,-0.39
2023-01-30T04:51:50.219Z,-0.38
2023-01-30T05:00:13.788Z,-0.40
2023-01-30T05:08:43.848Z,-0.37
2023-01-30T05:17:08.411Z,-0.37
2023-01-30T05:25:31.587Z,-0.36
2023-01-30T05:33:54.545Z,-0.35
2023-01-30T05:42:17.671Z,-0.33
2023-01-30T05:50:41.059Z,-0.40
2023-01-30T05:59:04.392Z,-0.36
2023-01-30T06:07:27.765Z,-0.42
2023-01-30T06:15:52.886Z,-0.45
2023-01-30T06:24:15.914Z,-0.47
2023-01-30T06:32:38.869Z,-0.54
2023-01-30T06:41:01.807Z,-0.58
2023-01-30T06:49:24.816Z,-0.65
2023-01-30T06:57:48.518Z,-0.70
2023-01-30T07:06:11.323Z,-0.70
2023-01-30T07:14:34.772Z,-0.73
2023-01-30T07:22:58.936Z,-0.72
2023-01-30T07:31:25.735Z,-0.79
2023-01-30T07:39:52.094Z,-0.78
2023-01-30T07:48:18.952Z,-0.80
2023-01-30T07:56:41.912Z,-0.80
2023-01-30T08:05:06.353Z,-0.77
2023-01-30T08:13:29.332Z,-0.91
2023-01-30T08:21:52.203Z,-1.11
2023-01-30T08:30:15.448Z,-1.24
2023-01-30T08:38:38.465Z,-1.20
2023-01-30T08:47:01.340Z,-1.24
2023-01-30T08:55:24.460Z,-1.14
2023-01-30T09:03:48.221Z,-1.04
2023-01-30T09:12:11.458Z,-0.98
2023-01-30T09:20:34.516Z,-1.04
2023-01-30T09:28:57.500Z,-1.20
2023-01-30T09:37:20.473Z,-1.34
2023-01-30T09:46:00.037Z,-1.37
2023-01-30T09:54:29.824Z,-1.21
2023-01-30T10:03:05.048Z,-1.11
2023-01-30T10:11:42.916Z,-1.08
2023-01-30T10:20:31.924Z,-1.10
2023-01-30T10:29:15.794Z,-1.01
2023-01-30T10:37:47.663Z,-1.01
2023-01-30T10:46:10.628Z,-0.75
2023-01-30T10:54:42.709Z,-0.60
2023-01-30T11:03:40.480Z,-0.54
2023-01-30T11:12:03.406Z,-0.60
2023-01-30T11:20:26.516Z,-0.57
2023-01-30T11:28:50.567Z,-0.65
2023-01-30T11:37:47.560Z,-0.66
2023-01-30T11:46:14.312Z,-0.54
2023-01-30T11:54:44.526Z,-0.49
2023-01-30T12:03:12.268Z,-0.47
2023-01-30T12:11:56.378Z,-0.47
2023-01-30T12:20:28.168Z,-0.43
2023-01-30T12:28:58.341Z,-0.49
2023-01-30T12:37:23.972Z,-0.47
2023-01-30T12:46:03.436Z,-0.32
2023-01-30T12:54:43.092Z,-0.25
2023-01-30T13:03:35.121Z,-0.23
2023-01-30T13:12:50.878Z,-0.24
2023-01-30T13:21:31.796Z,-0.21
2023-01-30T13:29:56.290Z,-0.18
2023-01-30T13:38:27.285Z,-0.18
2023-01-30T13:46:52.531Z,-0.11
2023-01-30T13:55:34.078Z,-0.09
2023-01-30T14:04:36.032Z,-0.09
2023-01-30T14:13:09.413Z,-0.14
2023-01-30T14:21:32.604Z,-0.16
2023-01-30T14:29:56.443Z,-0.15
2023-01-30T14:38:20.866Z,-0.20
2023-01-30T14:46:54.222Z,-0.14
2023-01-30T14:55:24.483Z,-0.13
2023-01-30T15:03:49.238Z,-0.10
2023-01-30T15:12:35.768Z,-0.11
2023-01-30T15:21:27.988Z,-0.07
2023-01-30T15:30:26.893Z,-0.10
2023-01-30T15:39:00.032Z,-0.10
2023-01-30T15:47:32.965Z,-0.09
2023-01-30T15:55:55.992Z,-0.07
2023-01-30T16:04:29.388Z,-0.03
2023-01-30T16:12:56.394Z,0.00
2023-01-30T16:21:23.052Z,0.03
2023-01-30T16:29:51.225Z,0.08
2023-01-30T16:38:35.635Z,0.10
2023-01-30T16:47:26.017Z,0.12
2023-01-30T16:56:17.055Z,0.15
2023-01-30T17:04:42.017Z,0.19
2023-01-30T17:13:05.700Z,0.22
2023-01-30T17:21:35.136Z,0.30
2023-01-30T17:29:58.427Z,0.34
2023-01-30T17:38:44.812Z,0.38
2023-01-30T17:47:12.488Z,0.41
2023-01-30T17:55:36.179Z,0.44
2023-01-30T18:04:05.216Z,0.51
2023-01-30T18:23:01.316Z,0.53
2023-01-30T18:32:19.889Z,0.57
2023-01-30T18:41:31.966Z,0.58
2023-01-30T18:50:41.963Z,0.56
2023-01-30T18:59:58.770Z,0.62
2023-01-30T19:18:19.296Z,0.66
2023-01-30T19:26:43.433Z,0.60
2023-01-30T19:35:43.002Z,0.55
2023-01-30T19:45:21.141Z,0.59
2023-01-30T19:53:54.782Z,0.58
2023-01-30T20:03:03.810Z,0.61
2023-01-30T20:11:31.255Z,0.64
2023-01-30T20:20:32.090Z,0.67
2023-01-30T20:29:39.890Z,0.71
2023-01-30T20:39:10.551Z,0.70
2023-01-30T20:48:31.892Z,0.77
2023-01-30T20:57:47.132Z,0.81
2023-01-30T21:06:41.135Z,0.90
2023-01-30T21:15:51.606Z,0.86
2023-01-30T21:24:25.499Z,0.79
2023-01-30T21:33:14.872Z,0.84
2023-01-30T21:42:25.737Z,0.72
2023-01-30T21:51:36.467Z,0.67
